createdAt,value
2022-09-19T00:01:55.526Z,9.93
2022-09-19T00:04:29.799Z,11.90
2022-09-19T00:06:57.530Z,10.95
2022-09-19T00:09:32.893Z,14.82
2022-09-19T00:12:00.285Z,11.68
2022-09-19T00:14:32.378Z,12.18
2022-09-19T00:17:04.118Z,10.35
2022-09-19T00:19:31.361Z,13.25
2022-09-19T00:22:03.941Z,9.27
2022-09-19T00:24:46.904Z,11.23
2022-09-19T00:27:26.930Z,9.73
2022-09-19T00:29:55.432Z,10.95
2022-09-19T00:32:24.840Z,11.07
2022-09-19T00:34:56.337Z,10.55
2022-09-19T00:37:24.808Z,9.00
2022-09-19T00:39:52.441Z,12.63
2022-09-19T00:42:26.030Z,9.90
2022-09-19T00:45:03.696Z,8.10
2022-09-19T00:47:40.772Z,11.13
2022-09-19T00:50:28.294Z,12.00
2022-09-19T00:53:09.100Z,13.73
2022-09-19T00:55:38.116Z,12.68
2022-09-19T00:58:36.093Z,11.75
2022-09-19T01:01:03.475Z,15.52
2022-09-19T01:03:31.815Z,9.43
2022-09-19T01:06:40.980Z,13.05
2022-09-19T01:09:36.901Z,9.43
2022-09-19T01:12:19.898Z,9.60
2022-09-19T01:15:24.807Z,13.38
2022-09-19T01:17:58.317Z,14.13
2022-09-19T01:20:49.316Z,8.57
2022-09-19T01:23:51.039Z,11.13
2022-09-19T01:27:26.267Z,6.40
2022-09-19T01:30:12.036Z,6.63
2022-09-19T01:32:52.940Z,11.20
2022-09-19T01:35:28.984Z,9.75
2022-09-19T01:38:08.443Z,8.15
2022-09-19T01:40:38.093Z,9.82
2022-09-19T01:43:11.932Z,9.48
2022-09-19T01:45:39.966Z,12.52
2022-09-19T01:48:25.926Z,12.43
2022-09-19T01:51:39.405Z,16.65
2022-09-19T01:54:51.522Z,9.48
2022-09-19T01:57:50.816Z,8.52
2022-09-19T02:00:23.450Z,9.55
2022-09-19T02:03:23.359Z,10.88
2022-09-19T02:06:44.636Z,8.25
2022-09-19T02:10:08.234Z,10.20
2022-09-19T02:12:40.944Z,9.38
2022-09-19T02:15:13.981Z,8.40
2022-09-19T02:17:53.453Z,11.68
2022-09-19T02:20:35.590Z,8.77
2022-09-19T02:23:29.727Z,8.70
2022-09-19T02:26:02.943Z,12.45
2022-09-19T02:28:40.708Z,8.50
2022-09-19T02:31:10.084Z,10.73
2022-09-19T02:33:38.637Z,9.32
2022-09-19T02:36:17.890Z,6.30
2022-09-19T02:38:59.714Z,8.13
2022-09-19T02:41:44.279Z,7.63
2022-09-19T02:45:08.879Z,9.60
2022-09-19T02:47:55.181Z,10.70
2022-09-19T02:51:06.875Z,9.60
2022-09-19T02:53:43.136Z,10.77
2022-09-19T02:56:15.515Z,11.95
2022-09-19T02:59:07.640Z,11.55
2022-09-19T03:01:41.092Z,9.07
2022-09-19T03:04:24.641Z,14.00
2022-09-19T03:07:01.087Z,11.02
2022-09-19T03:09:32.498Z,14.93
2022-09-19T03:12:23.920Z,9.02
2022-09-19T03:14:59.729Z,11.82
2022-09-19T03:17:38.403Z,10.07
2022-09-19T03:20:12.399Z,8.35
2022-09-19T03:22:43.042Z,9.20
2022-09-19T03:25:11.459Z,12.50
2022-09-19T03:27:38.691Z,11.85
2022-09-19T03:30:18.205Z,9.65
2022-09-19T03:32:46.913Z,12.45
2022-09-19T03:35:15.619Z,7.78
2022-09-19T03:37:43.101Z,11.35
2022-09-19T03:40:12.334Z,13.13
2022-09-19T03:42:39.641Z,10.07
2022-09-19T03:45:07.844Z,11.75
2022-09-19T03:47:34.933Z,9.25
2022-09-19T03:50:02.043Z,8.95
2022-09-19T03:52:29.053Z,9.95
2022-09-19T03:54:57.365Z,11.77
2022-09-19T03:57:24.474Z,14.10
2022-09-19T03:59:51.508Z,8.27
2022-09-19T04:02:18.693Z,10.40
2022-09-19T04:04:45.721Z,9.43
2022-09-19T04:07:13.029Z,12.57
2022-09-19T04:09:40.048Z,11.32
2022-09-19T04:12:07.571Z,14.40
2022-09-19T04:14:36.074Z,12.93
2022-09-19T04:17:21.433Z,8.50
2022-09-19T04:19:51.489Z,11.98
2022-09-19T04:22:20.105Z,9.75
2022-09-19T04:24:47.310Z,12.23
2022-09-19T04:27:20.075Z,17.17
2022-09-19T04:29:49.065Z,17.73
2022-09-19T04:32:17.418Z,12.65
2022-09-19T04:34:45.221Z,16.63
2022-09-19T04:37:16.472Z,13.13
2022-09-19T04:39:56.187Z,15.93
2022-09-19T04:42:25.896Z,16.25
2022-09-19T04:44:59.159Z,11.30
2022-09-19T04:47:29.115Z,9.60
2022-09-19T04:49:59.844Z,13.88
2022-09-19T04:52:34.324Z,13.27
2022-09-19T04:55:03.059Z,9.93
2022-09-19T04:57:39.168Z,14.23
2022-09-19T05:00:16.311Z,14.32
2022-09-19T05:03:01.110Z,12.88
2022-09-19T05:05:46.191Z,9.95
2022-09-19T05:08:27.304Z,8.52
2022-09-19T05:10:58.229Z,9.52
2022-09-19T05:13:33.484Z,11.43
2022-09-19T05:16:17.957Z,10.52
2022-09-19T05:18:47.947Z,8.02
2022-09-19T05:21:26.043Z,10.80
2022-09-19T05:23:53.229Z,10.93
2022-09-19T05:26:20.315Z,7.88
2022-09-19T05:28:47.401Z,9.27
2022-09-19T05:31:17.440Z,13.43
2022-09-19T05:33:44.424Z,10.25
2022-09-19T05:36:11.744Z,10.75
2022-09-19T05:38:39.137Z,7.95
2022-09-19T05:41:06.849Z,10.05
2022-09-19T05:43:34.463Z,8.32
2022-09-19T05:46:01.791Z,8.10
2022-09-19T05:48:31.170Z,11.43
2022-09-19T05:50:58.165Z,10.07
2022-09-19T05:53:43.711Z,11.07
2022-09-19T05:56:10.891Z,6.82
2022-09-19T05:58:38.746Z,7.15
2022-09-19T06:01:12.331Z,7.53
2022-09-19T06:03:40.339Z,8.27
2022-09-19T06:06:21.895Z,7.22
2022-09-19T06:08:57.843Z,12.35
2022-09-19T06:11:25.537Z,10.43
2022-09-19T06:14:11.345Z,11.70
2022-09-19T06:16:38.534Z,8.55
2022-09-19T06:19:06.938Z,8.45
2022-09-19T06:21:34.410Z,11.63
2022-09-19T06:24:02.364Z,12.57
2022-09-19T06:26:29.930Z,8.00
2022-09-19T06:28:56.925Z,13.25
2022-09-19T06:31:23.965Z,7.80
2022-09-19T06:33:50.991Z,9.80
2022-09-19T06:36:18.657Z,7.95
2022-09-19T06:38:45.684Z,8.35
2022-09-19T06:41:14.425Z,7.97
2022-09-19T06:43:41.480Z,9.50
2022-09-19T06:46:11.485Z,9.63
2022-09-19T06:48:38.543Z,12.40
2022-09-19T06:51:05.919Z,15.10
2022-09-19T06:53:32.987Z,8.88
2022-09-19T06:56:00.074Z,11.38
2022-09-19T06:58:27.716Z,10.32
2022-09-19T07:00:55.731Z,13.20
2022-09-19T07:03:23.295Z,10.77
2022-09-19T07:05:52.532Z,13.93
2022-09-19T07:08:19.547Z,12.43
2022-09-19T07:10:46.491Z,12.43
2022-09-19T07:13:17.795Z,10.75
2022-09-19T07:15:45.209Z,10.93
2022-09-19T07:18:15.407Z,9.43
2022-09-19T07:20:43.326Z,11.18
2022-09-19T07:23:26.534Z,7.88
2022-09-19T07:25:56.758Z,7.35
2022-09-19T07:28:37.004Z,10.57
2022-09-19T07:31:12.857Z,8.95
2022-09-19T07:33:40.145Z,8.52
2022-09-19T07:36:11.356Z,9.48
2022-09-19T07:38:41.817Z,10.43
2022-09-19T07:41:12.184Z,9.38
2022-09-19T07:44:05.325Z,9.35
2022-09-19T07:46:37.332Z,8.32
2022-09-19T07:49:20.890Z,7.78
2022-09-19T07:51:57.218Z,8.35
2022-09-19T07:54:33.321Z,10.95
2022-09-19T07:57:01.291Z,10.65
2022-09-19T07:59:31.351Z,10.10
2022-09-19T08:02:08.147Z,10.20
2022-09-19T08:04:48.435Z,7.60
2022-09-19T08:07:30.884Z,7.55
2022-09-19T08:10:05.917Z,8.07
2022-09-19T08:12:35.498Z,8.18
2022-09-19T08:15:05.721Z,9.15
2022-09-19T08:17:41.429Z,11.05
2022-09-19T08:20:19.119Z,10.25
2022-09-19T08:22:59.867Z,9.07
2022-09-19T08:25:36.428Z,9.93
2022-09-19T08:28:07.165Z,7.80
2022-09-19T08:30:48.965Z,7.55
2022-09-19T08:33:26.408Z,7.43
2022-09-19T08:36:18.206Z,8.95
2022-09-19T08:38:48.235Z,6.65
2022-09-19T08:42:21.380Z,8.52
2022-09-19T08:45:46.230Z,11.60
2022-09-19T08:48:32.231Z,8.43
2022-09-19T08:51:11.888Z,7.28
2022-09-19T08:53:54.240Z,7.53
2022-09-19T08:56:26.780Z,8.15
2022-09-19T08:59:23.461Z,6.82
2022-09-19T09:02:23.600Z,6.47
2022-09-19T09:04:59.653Z,6.10
2022-09-19T09:08:06.967Z,7.63
2022-09-19T09:11:49.486Z,5.15
2022-09-19T09:14:40.496Z,6.38
2022-09-19T09:17:32.775Z,5.05
2022-09-19T09:20:35.290Z,6.88
2022-09-19T09:23:34.325Z,6.15
2022-09-19T09:26:29.109Z,5.43
2022-09-19T09:29:30.946Z,5.28
2022-09-19T09:32:24.720Z,7.32
2022-09-19T09:35:28.559Z,6.00
2022-09-19T09:38:05.863Z,3.47
2022-09-19T09:41:07.802Z,4.38
2022-09-19T09:44:00.614Z,6.13
2022-09-19T09:46:50.627Z,2.93
2022-09-19T09:49:26.931Z,2.65
2022-09-19T09:52:14.259Z,2.88
2022-09-19T09:55:47.437Z,1.98
2022-09-19T09:58:25.908Z,2.80
2022-09-19T10:01:52.441Z,2.70
2022-09-19T10:04:40.093Z,1.92
2022-09-19T10:07:36.123Z,2.08
2022-09-19T10:10:14.238Z,2.67
2022-09-19T10:12:53.374Z,1.40
2022-09-19T10:15:26.531Z,1.45
2022-09-19T10:18:06.363Z,2.92
2022-09-19T10:20:39.852Z,3.13
2022-09-19T10:23:17.040Z,2.35
2022-09-19T10:25:45.080Z,4.05
2022-09-19T10:28:46.373Z,2.47
2022-09-19T10:31:36.197Z,5.30
2022-09-19T10:34:07.171Z,2.13
2022-09-19T10:36:45.794Z,1.52
2022-09-19T10:39:18.882Z,2.83
2022-09-19T10:44:22.410Z,3.13
2022-09-19T10:47:15.029Z,1.92
2022-09-19T10:49:48.774Z,3.47
2022-09-19T10:55:23.214Z,2.47
2022-09-19T10:58:04.784Z,2.30
2022-09-19T11:00:56.936Z,1.05
2022-09-19T11:03:31.418Z,2.20
2022-09-19T11:06:11.671Z,2.72
2022-09-19T11:09:24.434Z,2.97
2022-09-19T11:11:51.843Z,1.45
2022-09-19T11:14:36.727Z,8.77
2022-09-19T11:17:32.943Z,3.85
2022-09-19T11:20:33.832Z,1.40
2022-09-19T11:23:53.566Z,2.28
2022-09-19T11:26:36.552Z,3.40
2022-09-19T11:29:46.459Z,2.42
2022-09-19T11:32:52.697Z,8.73
2022-09-19T11:35:32.409Z,1.80
2022-09-19T11:41:31.492Z,2.80
2022-09-19T11:44:32.600Z,3.97
2022-09-19T11:47:28.291Z,3.55
2022-09-19T11:51:00.926Z,5.00
2022-09-19T11:54:15.947Z,2.28
2022-09-19T11:57:17.930Z,10.93
2022-09-19T12:00:01.635Z,7.25
2022-09-19T12:03:21.207Z,6.57
2022-09-19T12:05:58.014Z,3.95
2022-09-19T12:08:31.954Z,2.88
2022-09-19T12:11:10.655Z,3.90
2022-09-19T12:13:44.101Z,1.90
2022-09-19T12:16:37.950Z,4.65
2022-09-19T12:19:17.100Z,2.83
2022-09-19T12:21:59.049Z,3.28
2022-09-19T12:24:54.046Z,1.38
2022-09-19T12:27:50.477Z,3.08
2022-09-19T12:30:21.777Z,2.97
2022-09-19T12:33:08.299Z,4.70
2022-09-19T12:35:56.680Z,4.45
2022-09-19T12:38:36.884Z,6.80
2022-09-19T12:41:30.807Z,6.22
2022-09-19T12:44:33.506Z,6.00
2022-09-19T12:47:08.892Z,2.70
2022-09-19T12:50:03.123Z,6.55
2022-09-19T12:52:37.450Z,6.45
2022-09-19T12:55:24.157Z,6.82
2022-09-19T12:58:05.138Z,7.57
2022-09-19T13:00:38.398Z,3.65
2022-09-19T13:03:16.040Z,3.38
2022-09-19T13:05:55.151Z,4.93
2022-09-19T13:09:05.736Z,4.20
2022-09-19T13:11:47.608Z,5.45
2022-09-19T13:14:42.450Z,5.70
2022-09-19T13:17:31.730Z,4.93
2022-09-19T13:20:18.132Z,3.10
2022-09-19T13:23:14.870Z,3.38
2022-09-19T13:25:44.360Z,4.13
2022-09-19T13:28:50.892Z,6.20
2022-09-19T13:31:40.315Z,3.95
2022-09-19T13:34:44.058Z,5.40
2022-09-19T13:37:56.523Z,3.50
2022-09-19T13:41:08.464Z,3.60
2022-09-19T13:44:10.772Z,3.17
2022-09-19T13:47:08.489Z,4.63
2022-09-19T13:49:48.488Z,3.13
2022-09-19T13:52:34.300Z,5.38
2022-09-19T13:55:34.282Z,3.75
2022-09-19T13:58:37.123Z,6.93
2022-09-19T14:01:23.099Z,5.38
2022-09-19T14:04:19.438Z,3.10
2022-09-19T14:10:12.464Z,6.05
2022-09-19T14:12:46.333Z,5.05
2022-09-19T14:15:49.317Z,2.50
2022-09-19T14:18:16.762Z,2.35
2022-09-19T14:20:49.465Z,3.25
2022-09-19T14:23:19.942Z,2.05
2022-09-19T14:26:14.785Z,4.63
2022-09-19T14:29:09.282Z,4.55
2022-09-19T14:32:20.894Z,1.80
2022-09-19T14:34:52.561Z,2.63
2022-09-19T14:37:47.230Z,2.35
2022-09-19T14:40:48.204Z,3.33
2022-09-19T14:43:24.206Z,1.75
2022-09-19T14:46:31.699Z,3.10
2022-09-19T14:49:29.512Z,2.78
2022-09-19T14:52:17.928Z,3.10
2022-09-19T14:55:01.820Z,4.25
2022-09-19T14:57:30.246Z,4.32
2022-09-19T15:00:36.206Z,2.58
2022-09-19T15:03:13.201Z,2.05
2022-09-19T15:05:43.626Z,3.53
2022-09-19T15:08:32.062Z,4.20
2022-09-19T15:11:11.091Z,3.28
2022-09-19T15:13:46.485Z,2.55
2022-09-19T15:16:14.521Z,3.10
2022-09-19T15:18:48.840Z,3.47
2022-09-19T15:21:25.701Z,3.05
2022-09-19T15:23:59.325Z,3.58
2022-09-19T15:26:33.004Z,2.80
2022-09-19T15:29:27.964Z,3.85
2022-09-19T15:32:15.049Z,7.90
2022-09-19T15:34:49.308Z,4.10
2022-09-19T15:37:20.070Z,3.88
2022-09-19T15:39:50.520Z,3.08
2022-09-19T15:42:19.161Z,3.90
2022-09-19T15:44:52.788Z,2.83
2022-09-19T15:47:30.035Z,6.38
2022-09-19T15:50:03.096Z,7.13
2022-09-19T15:55:33.987Z,5.28
2022-09-19T15:58:03.119Z,3.85
2022-09-19T16:00:31.666Z,2.85
2022-09-19T16:03:03.512Z,3.67
2022-09-19T16:05:34.521Z,3.33
2022-09-19T16:08:39.441Z,3.28
2022-09-19T16:11:35.841Z,1.55
2022-09-19T16:14:14.717Z,5.65
2022-09-19T16:16:42.141Z,5.28
2022-09-19T16:19:44.757Z,3.88
2022-09-19T16:22:21.629Z,5.75
2022-09-19T16:25:16.428Z,4.28
2022-09-19T16:27:43.538Z,6.25
2022-09-19T16:30:11.810Z,9.48
2022-09-19T16:32:43.655Z,6.95
2022-09-19T16:35:19.125Z,6.72
2022-09-19T16:37:47.274Z,6.80
2022-09-19T16:40:27.579Z,7.85
2022-09-19T16:42:55.561Z,9.30
2022-09-19T16:45:41.338Z,6.78
2022-09-19T16:48:09.323Z,5.90
2022-09-19T16:50:42.329Z,8.43
2022-09-19T16:53:15.601Z,6.88
2022-09-19T16:55:49.874Z,6.82
2022-09-19T16:58:19.554Z,4.78
2022-09-19T17:00:47.106Z,7.15
2022-09-19T17:03:15.980Z,6.13
2022-09-19T17:05:43.205Z,7.90
2022-09-19T17:08:10.833Z,6.03
2022-09-19T17:10:41.020Z,5.93
2022-09-19T17:13:16.503Z,7.38
2022-09-19T17:16:02.719Z,5.70
2022-09-19T17:18:30.242Z,9.10
2022-09-19T17:21:00.638Z,6.53
2022-09-19T17:23:30.057Z,5.45
2022-09-19T17:25:58.306Z,5.07
2022-09-19T17:28:29.135Z,5.50
2022-09-19T17:30:59.928Z,5.65
2022-09-19T17:33:29.993Z,7.32
2022-09-19T17:35:59.185Z,7.97
2022-09-19T17:38:34.448Z,8.05
2022-09-19T17:41:01.951Z,5.65
2022-09-19T17:43:29.615Z,5.97
2022-09-19T17:46:00.512Z,10.35
2022-09-19T17:48:28.474Z,8.00
2022-09-19T17:50:56.022Z,9.55
2022-09-19T17:53:23.576Z,9.13
2022-09-19T17:55:50.773Z,11.45
2022-09-19T17:58:17.841Z,16.88
2022-09-19T18:00:46.124Z,12.85
2022-09-19T18:03:18.507Z,15.02
2022-09-19T18:05:59.603Z,15.85
2022-09-19T18:08:28.889Z,17.58
2022-09-19T18:11:05.129Z,22.33
2022-09-19T18:13:37.264Z,23.10
2022-09-19T18:16:11.882Z,25.70
2022-09-19T18:18:39.740Z,18.83
2022-09-19T18:21:09.379Z,18.30
2022-09-19T18:23:39.139Z,23.27
2022-09-19T18:26:08.261Z,16.85
2022-09-19T18:28:36.266Z,18.40
2022-09-19T18:31:09.270Z,14.30
2022-09-19T18:36:29.016Z,16.02
2022-09-19T18:38:56.606Z,18.52
2022-09-19T18:41:30.427Z,16.52
2022-09-19T18:43:57.903Z,18.30
2022-09-19T18:46:26.801Z,18.67
2022-09-19T18:48:57.643Z,24.60
2022-09-19T18:51:28.492Z,27.80
2022-09-19T18:53:59.869Z,28.90
2022-09-19T18:56:27.786Z,22.60
2022-09-19T18:58:57.177Z,27.75
2022-09-19T19:01:26.845Z,22.10
2022-09-19T19:04:00.223Z,21.83
2022-09-19T19:06:28.868Z,20.90
2022-09-19T19:08:59.192Z,23.42
2022-09-19T19:11:30.735Z,25.98
2022-09-19T19:14:01.909Z,21.85
2022-09-19T19:16:31.384Z,20.52
2022-09-19T19:19:00.116Z,24.52
2022-09-19T19:21:33.145Z,20.33
2022-09-19T19:24:01.313Z,18.27
2022-09-19T19:26:32.020Z,18.95
2022-09-19T19:29:00.453Z,16.80
2022-09-19T19:31:27.931Z,16.95
2022-09-19T19:33:55.077Z,16.25
2022-09-19T19:36:23.370Z,20.13
2022-09-19T19:38:54.003Z,20.42
2022-09-19T19:41:28.329Z,16.77
2022-09-19T19:43:59.456Z,18.55
2022-09-19T19:46:34.236Z,18.67
2022-09-19T19:49:03.906Z,17.13
2022-09-19T19:51:39.779Z,17.80
2022-09-19T19:54:13.928Z,14.25
2022-09-19T19:56:41.427Z,14.07
2022-09-19T19:59:08.792Z,16.23
2022-09-19T20:01:39.316Z,15.63
2022-09-19T20:04:09.918Z,14.88
2022-09-19T20:06:43.830Z,13.60
2022-09-19T20:09:12.265Z,16.60
2022-09-19T20:11:41.143Z,12.27
2022-09-19T20:14:15.773Z,13.85
2022-09-19T20:16:46.427Z,11.13
2022-09-19T20:19:16.672Z,12.90
2022-09-19T20:21:47.377Z,15.68
2022-09-19T20:24:20.897Z,13.20
2022-09-19T20:26:49.494Z,13.55
2022-09-19T20:29:20.370Z,14.88
2022-09-19T20:31:47.422Z,16.90
2022-09-19T20:34:15.460Z,12.50
2022-09-19T20:36:42.821Z,15.43
2022-09-19T20:39:10.733Z,11.52
2022-09-19T20:41:38.200Z,9.70
2022-09-19T20:44:09.507Z,10.30
2022-09-19T20:46:37.860Z,10.50
2022-09-19T20:49:08.693Z,9.18
2022-09-19T20:51:41.461Z,9.82
2022-09-19T20:54:14.461Z,9.73
2022-09-19T20:56:41.497Z,10.77
2022-09-19T20:59:15.588Z,10.40
2022-09-19T21:01:48.969Z,10.15
2022-09-19T21:04:17.483Z,9.80
2022-09-19T21:06:44.443Z,8.50
2022-09-19T21:09:12.356Z,9.73
2022-09-19T21:11:39.902Z,9.38
2022-09-19T21:14:06.931Z,9.00
2022-09-19T21:16:34.498Z,9.60
2022-09-19T21:19:02.119Z,9.27
2022-09-19T21:21:31.786Z,9.90
2022-09-19T21:23:59.410Z,9.93
2022-09-19T21:26:30.618Z,11.85
2022-09-19T21:29:05.416Z,10.95
2022-09-19T21:31:37.256Z,10.07
2022-09-19T21:34:06.903Z,15.75
2022-09-19T21:36:37.283Z,11.52
2022-09-19T21:39:05.343Z,14.10
2022-09-19T21:41:35.880Z,12.27
2022-09-19T21:44:06.815Z,11.13
2022-09-19T21:46:37.671Z,9.55
2022-09-19T21:49:08.494Z,10.75
2022-09-19T21:51:38.213Z,10.88
2022-09-19T21:54:08.202Z,9.43
2022-09-19T21:56:36.648Z,9.70
2022-09-19T21:59:06.092Z,10.45
2022-09-19T22:01:36.761Z,13.73
2022-09-19T22:04:04.609Z,10.73
2022-09-19T22:06:32.781Z,11.07
2022-09-19T22:09:01.344Z,11.40
2022-09-19T22:11:33.021Z,12.23
2022-09-19T22:14:00.656Z,11.73
2022-09-19T22:16:31.566Z,12.27
2022-09-19T22:18:59.134Z,8.00
2022-09-19T22:21:26.789Z,9.63
2022-09-19T22:23:56.446Z,11.82
2022-09-19T22:26:26.796Z,9.60
2022-09-19T22:28:55.427Z,10.02
2022-09-19T22:31:24.899Z,12.98
2022-09-19T22:33:53.766Z,11.57
2022-09-19T22:36:31.979Z,8.52
2022-09-19T22:39:01.362Z,10.15
2022-09-19T22:41:28.566Z,8.85
2022-09-19T22:43:57.541Z,10.38
2022-09-19T22:46:28.250Z,9.82
2022-09-19T22:48:56.177Z,8.88
2022-09-19T22:51:26.266Z,11.18
2022-09-19T22:53:53.671Z,8.48
2022-09-19T22:56:24.602Z,10.10
2022-09-19T22:58:51.923Z,8.50
2022-09-19T23:01:25.452Z,9.07
2022-09-19T23:03:56.153Z,8.52
2022-09-19T23:06:39.299Z,11.27
2022-09-19T23:09:15.382Z,7.97
2022-09-19T23:11:45.336Z,8.48
2022-09-19T23:14:18.875Z,8.13
2022-09-19T23:16:46.348Z,11.27
2022-09-19T23:19:17.064Z,9.40
2022-09-19T23:21:50.606Z,11.07
2022-09-19T23:24:28.164Z,11.32
2022-09-19T23:26:59.185Z,8.60
2022-09-19T23:29:26.825Z,11.95
2022-09-19T23:31:54.666Z,11.48
2022-09-19T23:34:22.477Z,11.25
2022-09-19T23:36:53.095Z,11.13
2022-09-19T23:39:20.277Z,9.48
2022-09-19T23:41:47.466Z,12.30
2022-09-19T23:44:14.612Z,9.27
2022-09-19T23:46:41.662Z,10.13
2022-09-19T23:49:08.962Z,8.90
2022-09-19T23:51:36.924Z,8.77
2022-09-19T23:54:04.409Z,8.80
2022-09-19T23:56:33.419Z,9.70
2022-09-19T23:59:00.972Z,9.57
